Time;durP1;ratioP1;P1;durP2;ratioP2;P2;SDS_P1;SDS_P2;PMS_P1;PMS_P2;Temp;Humidity;BMP_temperature;BMP_pressure;BME280_temperature;BME280_humidity;BME280_pressure;Samples;Min_cycle;Max_cycle;Signal;HPM_P1;HPM_P2
2023/09/11 00:02:18;;;;;;;11.32;8.98;;;;;;;18.45;84.82;100644.34;5123803;28;20076;-72
2023/09/11 00:04:44;;;;;;;11.23;8.23;;;;;;;18.42;84.74;100640.97;5123953;28;20045;-71
2023/09/11 00:07:09;;;;;;;12.63;8.82;;;;;;;18.43;84.95;100645.34;5125244;28;20039;-72
2023/09/11 00:09:34;;;;;;;18.38;8.93;;;;;;;18.40;84.89;100643.66;5128293;28;20034;-72
2023/09/11 00:12:00;;;;;;;12.15;9.02;;;;;;;18.41;85.02;100641.91;5127957;28;20439;-71
2023/09/11 00:14:25;;;;;;;12.45;9.48;;;;;;;18.32;84.63;100637.84;5126725;28;20083;-71
2023/09/11 00:16:50;;;;;;;13.75;9.02;;;;;;;18.33;84.84;100639.56;5127882;28;20520;-72
2023/09/11 00:19:16;;;;;;;12.00;9.63;;;;;;;18.33;85.01;100639.56;5127850;28;20022;-72
2023/09/11 00:21:41;;;;;;;18.05;9.18;;;;;;;18.30;84.97;100630.03;5127691;28;20043;-72
2023/09/11 00:24:06;;;;;;;18.38;10.82;;;;;;;18.30;84.87;100644.94;5127535;28;20384;-72
2023/09/11 00:26:32;;;;;;;15.25;10.55;;;;;;;18.26;85.14;100632.84;5127730;28;20019;-72
2023/09/11 00:28:57;;;;;;;14.23;9.43;;;;;;;18.25;85.16;100631.97;5127366;28;20020;-71
2023/09/11 00:31:22;;;;;;;11.18;8.48;;;;;;;18.24;84.97;100625.00;5127383;28;20032;-71
2023/09/11 00:33:48;;;;;;;20.10;10.25;;;;;;;18.26;84.96;100631.03;5127303;28;20023;-71
2023/09/11 00:36:13;;;;;;;16.65;10.88;;;;;;;18.28;85.00;100630.97;5126995;28;20043;-71
2023/09/11 00:38:38;;;;;;;16.67;10.23;;;;;;;18.24;85.39;100624.13;5127596;28;20027;-71
2023/09/11 00:41:04;;;;;;;19.90;10.70;;;;;;;18.21;85.56;100615.44;5127486;28;20479;-72
2023/09/11 00:43:29;;;;;;;20.88;9.50;;;;;;;18.18;85.56;100612.94;5127290;28;20501;-72
2023/09/11 00:45:56;;;;;;;22.08;10.48;;;;;;;18.20;85.64;100613.75;5127678;28;20028;-72
2023/09/11 00:48:22;;;;;;;18.00;9.77;;;;;;;18.20;85.58;100615.50;5108832;28;20110;-72
2023/09/11 00:50:48;;;;;;;16.38;10.10;;;;;;;18.17;85.68;100605.09;5127268;28;20028;-71
2023/09/11 00:53:14;;;;;;;23.13;9.02;;;;;;;18.19;85.92;100604.16;5126890;28;20039;-72
2023/09/11 00:55:43;;;;;;;16.38;10.57;;;;;;;18.16;86.30;100606.03;5127083;28;20111;-71
2023/09/11 00:58:08;;;;;;;19.45;11.82;;;;;;;18.08;86.63;100598.41;5108762;28;20016;-72
2023/09/11 01:00:34;;;;;;;35.03;12.48;;;;;;;18.00;86.85;100588.19;5127064;28;20031;-72
2023/09/11 01:02:59;;;;;;;22.98;11.00;;;;;;;18.02;86.64;100585.50;5126764;28;20490;-71
2023/09/11 01:05:27;;;;;;;15.75;10.02;;;;;;;18.03;86.95;100589.84;5127085;28;20491;-71
2023/09/11 01:07:53;;;;;;;14.15;10.68;;;;;;;18.06;87.03;100592.34;5126834;28;20046;-71
2023/09/11 01:10:18;;;;;;;17.77;10.30;;;;;;;18.04;86.83;100587.16;5126863;28;20531;-72
2023/09/11 01:12:44;;;;;;;17.00;10.52;;;;;;;18.04;87.05;100587.16;5126594;28;20305;-72
2023/09/11 01:15:10;;;;;;;25.70;10.90;;;;;;;18.06;87.32;100585.34;5126661;28;20030;-72
2023/09/11 01:17:40;;;;;;;24.20;12.35;;;;;;;18.01;87.25;100576.75;5126209;28;20039;-71
2023/09/11 01:20:48;;;;;;;21.20;11.40;;;;;;;17.99;87.84;100575.94;5126630;28;20031;-71
2023/09/11 01:23:32;;;;;;;25.63;11.48;;;;;;;17.94;88.44;100578.75;5126481;28;20030;-72
2023/09/11 01:26:11;;;;;;;18.70;11.15;;;;;;;17.91;88.67;100583.25;5108121;28;20020;-72
2023/09/11 01:29:11;;;;;;;18.10;10.80;;;;;;;17.86;89.06;100569.44;5126361;28;20031;-71
2023/09/11 01:31:38;;;;;;;18.85;11.07;;;;;;;17.82;89.40;100576.56;5125192;28;20032;-71
2023/09/11 01:34:05;;;;;;;19.55;13.27;;;;;;;17.84;89.87;100578.22;5126239;28;20092;-72
2023/09/11 01:36:31;;;;;;;16.20;12.48;;;;;;;17.84;89.87;100570.34;5126230;28;20028;-71
2023/09/11 01:38:58;;;;;;;32.30;11.73;;;;;;;17.81;90.12;100569.63;5126163;28;20041;-71
2023/09/11 01:41:33;;;;;;;21.50;10.10;;;;;;;17.84;90.32;100575.59;5126025;28;20119;-71
2023/09/11 01:44:03;;;;;;;22.05;12.43;;;;;;;17.86;90.47;100561.56;5126137;28;20045;-73
2023/09/11 01:46:29;;;;;;;26.55;11.07;;;;;;;17.87;89.95;100565.91;5126243;28;20075;-73
2023/09/11 01:48:56;;;;;;;22.65;11.23;;;;;;;17.94;89.88;100572.63;5124704;28;20024;-74
2023/09/11 01:51:22;;;;;;;18.05;12.38;;;;;;;17.96;89.80;100560.31;5126042;28;20520;-74
2023/09/11 01:53:48;;;;;;;23.13;11.50;;;;;;;17.99;89.78;100556.72;5125809;28;20493;-74
2023/09/11 01:56:16;;;;;;;19.58;11.85;;;;;;;18.00;89.33;100559.28;5126052;28;20043;-74
2023/09/11 01:58:43;;;;;;;17.98;11.25;;;;;;;18.05;89.28;100562.59;5125784;28;20015;-74
2023/09/11 02:01:08;;;;;;;26.63;11.30;;;;;;;18.02;89.10;100562.69;5126068;28;20042;-74
2023/09/11 02:03:34;;;;;;;19.15;12.45;;;;;;;17.99;89.20;100554.09;5125448;28;20043;-74
2023/09/11 02:05:59;;;;;;;21.17;12.25;;;;;;;17.98;89.36;100552.38;5125726;28;20034;-74
2023/09/11 02:08:25;;;;;;;28.00;10.05;;;;;;;17.96;89.49;100549.78;5125435;28;20035;-75
2023/09/11 02:10:50;;;;;;;18.10;9.70;;;;;;;17.94;89.96;100551.63;5124553;28;20023;-74
2023/09/11 02:13:15;;;;;;;19.55;10.52;;;;;;;17.93;90.25;100550.78;5124163;28;20051;-75
2023/09/11 02:15:41;;;;;;;26.55;10.93;;;;;;;17.89;90.42;100550.94;5125586;28;20072;-75
2023/09/11 02:18:08;;;;;;;26.55;11.50;;;;;;;17.82;90.86;100545.94;5106957;28;20011;-74
2023/09/11 02:20:33;;;;;;;34.30;10.32;;;;;;;17.75;90.95;100533.09;5125657;28;20355;-74
2023/09/11 02:22:59;;;;;;;27.40;12.63;;;;;;;17.80;91.01;100541.63;5124195;28;20019;-73
2023/09/11 02:25:24;;;;;;;58.30;13.18;;;;;;;17.77;91.32;100539.13;5125372;28;20031;-71
2023/09/11 02:27:50;;;;;;;28.77;11.98;;;;;;;17.83;91.20;100546.75;5125280;28;20107;-71
2023/09/11 02:30:15;;;;;;;24.52;10.38;;;;;;;17.84;90.89;100549.34;5124631;28;20049;-71
2023/09/11 02:32:40;;;;;;;61.17;13.35;;;;;;;17.86;90.90;100540.56;5125125;28;20019;-70
2023/09/11 02:35:06;;;;;;;30.00;10.48;;;;;;;17.84;90.88;100538.81;5106958;28;20016;-70
2023/09/11 02:37:31;;;;;;;35.85;11.00;;;;;;;17.89;90.83;100540.44;5125204;28;20084;-71
2023/09/11 02:39:57;;;;;;;20.15;10.57;;;;;;;17.93;90.93;100542.91;5106837;28;20024;-70
2023/09/11 02:42:22;;;;;;;26.42;10.70;;;;;;;17.90;91.15;100537.75;5123447;28;20371;-69
2023/09/11 02:44:47;;;;;;;47.10;12.68;;;;;;;17.88;90.86;100544.84;5125270;28;20049;-69
2023/09/11 02:47:13;;;;;;;23.73;11.48;;;;;;;17.84;91.33;100536.19;5124819;28;20027;-70
2023/09/11 02:49:38;;;;;;;36.22;11.45;;;;;;;17.81;91.11;100527.59;5124974;28;20102;-69
2023/09/11 02:52:04;;;;;;;21.27;11.27;;;;;;;17.89;91.23;100536.03;5106498;28;20020;-69
2023/09/11 02:54:29;;;;;;;35.58;11.27;;;;;;;17.89;91.16;100529.94;5124501;28;20097;-69
2023/09/11 02:56:54;;;;;;;15.15;9.88;;;;;;;17.93;90.85;100532.41;5123400;28;20118;-70
2023/09/11 02:59:20;;;;;;;19.95;10.60;;;;;;;17.96;91.11;100531.41;5123355;28;20099;-70
2023/09/11 03:01:45;;;;;;;21.08;11.45;;;;;;;17.98;91.06;100531.34;5123184;28;20031;-70
2023/09/11 03:04:10;;;;;;;18.38;11.23;;;;;;;17.97;90.80;100527.91;5124725;28;20020;-69
2023/09/11 03:06:36;;;;;;;24.38;11.75;;;;;;;17.86;90.63;100514.31;5123571;28;20033;-69
2023/09/11 03:09:03;;;;;;;32.53;12.02;;;;;;;17.98;90.78;100534.84;5123714;28;20254;-70
2023/09/11 03:11:28;;;;;;;30.15;12.48;;;;;;;18.02;90.66;100532.97;5124972;28;20024;-69
2023/09/11 03:13:53;;;;;;;18.48;10.38;;;;;;;18.02;90.89;100528.56;5124604;28;20029;-68
2023/09/11 03:16:18;;;;;;;28.27;11.07;;;;;;;18.00;90.83;100538.28;5124751;28;20043;-69
2023/09/11 03:18:44;;;;;;;16.77;10.70;;;;;;;18.01;90.54;100539.97;5124314;28;20023;-69
2023/09/11 03:21:09;;;;;;;18.85;11.50;;;;;;;18.01;90.49;100533.88;5124340;28;20028;-70
2023/09/11 03:23:35;;;;;;;17.85;11.13;;;;;;;18.04;90.80;100545.13;5124382;28;20168;-70
2023/09/11 03:26:01;;;;;;;16.48;10.55;;;;;;;18.05;90.28;100536.31;5124326;28;20273;-69
2023/09/11 03:28:30;;;;;;;17.73;11.20;;;;;;;18.02;90.31;100523.28;5124110;28;20072;-70
2023/09/11 03:30:57;;;;;;;19.95;11.05;;;;;;;18.08;90.41;100519.59;5124246;28;20027;-70
2023/09/11 03:33:23;;;;;;;20.60;10.70;;;;;;;18.10;90.01;100515.13;5124186;28;20095;-70
2023/09/11 03:35:48;;;;;;;13.20;8.85;;;;;;;18.17;90.13;100519.28;5124389;28;20050;-69
2023/09/11 03:38:14;;;;;;;16.67;9.93;;;;;;;18.15;90.21;100514.97;5124113;28;20030;-69
2023/09/11 03:40:43;;;;;;;16.38;10.18;;;;;;;18.09;90.02;100502.91;5124525;28;20094;-69
2023/09/11 03:43:08;;;;;;;23.73;11.82;;;;;;;18.06;90.38;100511.78;5128815;28;20024;-69
2023/09/11 03:45:34;;;;;;;17.55;11.20;;;;;;;18.00;90.54;100512.00;5128504;28;20110;-69
2023/09/11 03:47:59;;;;;;;15.38;10.02;;;;;;;17.99;90.43;100512.91;5109999;28;20023;-70
2023/09/11 03:50:25;;;;;;;16.02;10.85;;;;;;;18.00;90.48;100500.63;5128415;28;20034;-69
2023/09/11 03:52:50;;;;;;;19.58;10.32;;;;;;;18.00;90.35;100506.75;5128067;28;20027;-69
2023/09/11 03:55:16;;;;;;;19.65;10.80;;;;;;;18.02;90.37;100511.97;5128097;28;20085;-69
2023/09/11 03:57:42;;;;;;;27.10;10.52;;;;;;;18.00;90.76;100512.00;5128135;28;20015;-70
2023/09/11 04:00:07;;;;;;;14.18;10.43;;;;;;;17.97;90.57;100509.50;5128015;28;20023;-70
2023/09/11 04:02:33;;;;;;;17.75;9.93;;;;;;;17.96;90.90;100506.00;5128097;28;20024;-69
2023/09/11 04:04:59;;;;;;;18.85;10.27;;;;;;;18.04;90.36;100516.22;5128353;28;20043;-71
2023/09/11 04:07:24;;;;;;;18.10;11.05;;;;;;;18.01;90.20;100505.84;5109507;28;20027;-71
2023/09/11 04:09:50;;;;;;;20.45;10.05;;;;;;;18.03;90.20;100492.63;5127973;28;20126;-70
2023/09/11 04:12:16;;;;;;;15.32;10.00;;;;;;;18.03;90.20;100484.75;5128118;28;20027;-69
2023/09/11 04:14:42;;;;;;;19.52;11.18;;;;;;;18.02;90.48;100483.91;5128243;28;20043;-69
2023/09/11 04:17:10;;;;;;;18.75;9.65;;;;;;;17.96;91.10;100471.00;5128119;28;20030;-71
2023/09/11 04:19:36;;;;;;;19.10;9.88;;;;;;;17.84;91.87;100464.47;5128229;28;20043;-70
2023/09/11 04:22:04;;;;;;;13.63;10.23;;;;;;;17.79;92.28;100466.41;5128193;28;20120;-70
2023/09/11 04:24:30;;;;;;;23.73;11.38;;;;;;;17.71;92.69;100474.56;5128091;28;20015;-72
2023/09/11 04:26:55;;;;;;;17.65;11.02;;;;;;;17.69;93.16;100484.25;5109515;28;20110;-72
2023/09/11 04:29:21;;;;;;;23.25;11.30;;;;;;;17.70;93.02;100493.84;5127900;28;20047;-72
2023/09/11 04:31:46;;;;;;;20.88;10.77;;;;;;;17.66;93.37;100493.13;5127783;28;20034;-72
2023/09/11 04:34:11;;;;;;;15.18;9.98;;;;;;;17.69;93.05;100486.88;5127848;28;20047;-72
2023/09/11 04:36:37;;;;;;;15.02;9.82;;;;;;;17.73;92.85;100491.13;5126609;28;20023;-73
2023/09/11 04:39:04;;;;;;;18.45;10.02;;;;;;;17.77;92.91;100487.47;5127854;28;20460;-73
2023/09/11 04:41:30;;;;;;;17.85;10.15;;;;;;;17.78;92.96;100494.41;5127764;28;20051;-72
2023/09/11 04:43:55;;;;;;;15.68;9.13;;;;;;;17.77;92.79;100489.22;5109096;28;20034;-73
2023/09/11 04:46:21;;;;;;;16.50;9.35;;;;;;;17.82;92.61;100493.41;5127798;28;20023;-72
2023/09/11 04:48:46;;;;;;;18.48;9.68;;;;;;;17.81;92.83;100490.84;5127504;28;20053;-70
2023/09/11 04:51:11;;;;;;;18.27;11.48;;;;;;;17.85;92.88;100487.19;5127646;28;20054;-70
2023/09/11 04:53:37;;;;;;;17.58;8.07;;;;;;;17.84;92.74;100485.47;5125196;28;20070;-69
2023/09/11 04:56:03;;;;;;;21.05;9.85;;;;;;;17.85;92.91;100497.69;5127524;28;20023;-71
2023/09/11 04:58:28;;;;;;;31.05;9.88;;;;;;;17.82;92.79;100496.03;5127272;28;20022;-71
2023/09/11 05:00:53;;;;;;;20.10;10.82;;;;;;;17.86;92.88;100486.25;5127423;28;20031;-69
2023/09/11 05:03:19;;;;;;;26.17;10.82;;;;;;;17.84;92.69;100483.69;5108915;28;20023;-68
2023/09/11 05:05:44;;;;;;;13.15;8.48;;;;;;;17.88;92.86;100480.94;5127388;28;20471;-70
2023/09/11 05:08:10;;;;;;;21.80;10.35;;;;;;;17.87;92.85;100485.34;5127390;28;20023;-69
2023/09/11 05:10:43;;;;;;;15.57;9.85;;;;;;;17.87;92.91;100490.59;5125663;28;20116;-69
2023/09/11 05:13:09;;;;;;;18.88;9.52;;;;;;;17.89;92.88;100485.28;5127016;28;20450;-69
2023/09/11 05:15:35;;;;;;;13.13;8.30;;;;;;;17.92;92.67;100485.19;5108737;28;20034;-68
2023/09/11 05:18:00;;;;;;;19.60;9.38;;;;;;;17.87;92.46;100469.59;5126878;28;20103;-65
2023/09/11 05:20:26;;;;;;;20.90;10.32;;;;;;;17.93;92.63;100487.75;5108577;28;20703;-64
2023/09/11 05:22:51;;;;;;;23.50;10.43;;;;;;;17.93;92.46;100486.88;5126663;28;20095;-65
2023/09/11 05:25:16;;;;;;;17.65;9.88;;;;;;;17.92;92.68;100482.56;5126936;28;20227;-64
2023/09/11 05:27:44;;;;;;;27.85;11.02;;;;;;;17.91;92.35;100480.81;5127069;28;20020;-64
2023/09/11 05:30:10;;;;;;;16.20;9.32;;;;;;;17.95;92.35;100488.56;5125471;28;20028;-64
2023/09/11 05:32:36;;;;;;;18.45;10.02;;;;;;;17.93;92.54;100485.13;5126613;28;20030;-65
2023/09/11 05:35:01;;;;;;;18.77;9.48;;;;;;;17.93;92.33;100479.88;5126532;28;20023;-64
2023/09/11 05:37:26;;;;;;;18.33;10.18;;;;;;;17.97;92.37;100488.50;5126696;28;20019;-64
2023/09/11 05:39:52;;;;;;;15.55;9.95;;;;;;;17.96;92.63;100479.75;5126779;28;20051;-64
2023/09/11 05:42:17;;;;;;;23.63;11.35;;;;;;;17.89;92.45;100472.16;5126929;28;20031;-65
2023/09/11 05:44:43;;;;;;;25.85;9.93;;;;;;;17.94;92.56;100486.81;5126581;28;20023;-65
2023/09/11 05:47:09;;;;;;;15.10;9.27;;;;;;;18.02;92.73;100483.91;5126529;28;20027;-65
2023/09/11 05:49:34;;;;;;;11.48;8.43;;;;;;;18.03;92.56;100493.50;5126714;28;20019;-65
2023/09/11 05:51:59;;;;;;;15.15;8.20;;;;;;;18.02;92.75;100486.53;5126449;28;20339;-64
2023/09/11 05:54:25;;;;;;;22.95;10.18;;;;;;;18.05;92.70;100491.66;5126299;28;20104;-65
2023/09/11 05:56:50;;;;;;;15.52;9.90;;;;;;;18.05;92.47;100494.28;5126436;28;20396;-64
2023/09/11 05:59:18;;;;;;;18.50;10.10;;;;;;;18.08;92.53;100494.16;5126420;28;20023;-64
2023/09/11 06:01:46;;;;;;;17.75;10.02;;;;;;;18.12;92.58;100497.56;5126652;28;20040;-64
2023/09/11 06:04:11;;;;;;;16.55;9.52;;;;;;;18.14;92.48;100487.88;5125436;28;20573;-64
2023/09/11 06:06:37;;;;;;;17.55;8.77;;;;;;;18.13;92.68;100485.31;5126138;28;20027;-64
2023/09/11 06:09:06;;;;;;;25.00;10.35;;;;;;;18.17;92.09;100481.63;5126395;28;20055;-64
2023/09/11 06:11:31;;;;;;;10.80;8.38;;;;;;;18.16;92.04;100472.88;5126232;28;20056;-65
2023/09/11 06:13:56;;;;;;;17.90;8.90;;;;;;;18.15;92.12;100473.81;5126067;28;20019;-64
2023/09/11 06:16:22;;;;;;;17.30;9.32;;;;;;;18.13;92.23;100469.53;5126106;28;20023;-64
2023/09/11 06:18:47;;;;;;;18.92;9.40;;;;;;;18.13;92.03;100480.88;5125881;28;20042;-65
2023/09/11 06:21:13;;;;;;;14.98;9.70;;;;;;;18.08;92.53;100462.63;5126035;28;20045;-65
2023/09/11 06:23:38;;;;;;;19.00;9.93;;;;;;;18.11;92.52;100461.69;5125745;28;20047;-64
2023/09/11 06:26:03;;;;;;;21.23;9.80;;;;;;;18.08;92.28;100453.94;5125919;28;20055;-64
2023/09/11 06:28:29;;;;;;;21.75;10.40;;;;;;;18.11;92.36;100450.31;5125879;28;20053;-63
2023/09/11 06:30:54;;;;;;;17.60;9.20;;;;;;;18.07;92.43;100442.56;5125893;28;20387;-64
2023/09/11 06:33:20;;;;;;;13.90;9.60;;;;;;;18.16;92.18;100443.16;5125648;28;20023;-64
2023/09/11 06:35:45;;;;;;;13.85;9.23;;;;;;;18.16;92.16;100433.47;5125809;28;20383;-65
2023/09/11 06:38:11;;;;;;;11.43;7.75;;;;;;;18.17;92.01;100431.72;5125897;28;20019;-65
2023/09/11 06:40:37;;;;;;;20.67;8.68;;;;;;;18.17;92.15;100432.56;5125717;28;20023;-65
2023/09/11 06:43:03;;;;;;;14.00;9.15;;;;;;;18.19;92.23;100424.63;5125454;28;20023;-64
2023/09/11 06:45:28;;;;;;;11.60;8.32;;;;;;;18.21;92.03;100420.19;5125780;28;20020;-64
2023/09/11 06:47:53;;;;;;;23.48;9.32;;;;;;;18.21;92.21;100420.19;5125286;28;20016;-64
2023/09/11 06:50:19;;;;;;;16.02;8.77;;;;;;;18.09;91.96;100403.94;5125299;28;20026;-65
2023/09/11 06:52:44;;;;;;;15.35;8.57;;;;;;;18.14;92.27;100423.94;5125381;28;20027;-65
2023/09/11 06:55:10;;;;;;;20.38;10.68;;;;;;;18.12;92.27;100417.91;5124910;28;20174;-65
2023/09/11 06:57:41;;;;;;;15.35;8.93;;;;;;;18.20;92.58;100428.97;5125440;28;20056;-65
2023/09/11 07:00:10;;;;;;;15.00;9.60;;;;;;;18.21;92.54;100423.63;5106827;28;20032;-65
2023/09/11 07:02:37;;;;;;;26.98;10.50;;;;;;;18.27;92.40;100419.94;5125159;28;20148;-65
2023/09/11 07:05:04;;;;;;;23.23;8.88;;;;;;;18.35;92.74;100410.84;5125275;28;20428;-67
2023/09/11 07:07:30;;;;;;;18.55;11.18;;;;;;;18.49;92.14;100421.66;5125137;28;20090;-66
2023/09/11 07:09:55;;;;;;;25.83;10.38;;;;;;;18.53;92.11;100420.59;5125005;28;20035;-64
2023/09/11 07:12:20;;;;;;;24.42;9.93;;;;;;;18.55;91.75;100412.66;5125281;28;20015;-65
2023/09/11 07:14:46;;;;;;;14.57;9.65;;;;;;;18.56;91.74;100414.38;5106804;28;20036;-64
2023/09/11 07:17:11;;;;;;;18.23;11.50;;;;;;;18.55;91.37;100410.88;5123256;28;20027;-65
2023/09/11 07:19:36;;;;;;;15.45;10.23;;;;;;;18.40;91.44;100415.00;5124927;28;20020;-65
2023/09/11 07:22:03;;;;;;;20.67;12.10;;;;;;;18.40;91.92;100414.16;5123560;28;20023;-65
2023/09/11 07:24:28;;;;;;;15.48;10.05;;;;;;;18.41;91.86;100415.88;5124753;28;20044;-64
2023/09/11 07:26:53;;;;;;;16.38;10.40;;;;;;;18.39;91.74;100413.28;5124417;28;20058;-65
2023/09/11 07:29:19;;;;;;;13.00;9.02;;;;;;;18.39;91.25;100418.56;5124793;28;20026;-65
2023/09/11 07:31:46;;;;;;;18.30;9.52;;;;;;;18.35;91.31;100421.38;5124854;28;20032;-65
2023/09/11 07:34:12;;;;;;;14.13;8.38;;;;;;;18.25;91.12;100413.88;5124535;28;20020;-65
2023/09/11 07:36:38;;;;;;;22.80;10.63;;;;;;;18.18;91.51;100412.38;5125019;28;20125;-65
2023/09/11 07:39:03;;;;;;;16.88;9.13;;;;;;;18.20;92.09;100402.69;5124769;28;20455;-66
2023/09/11 07:41:29;;;;;;;15.45;9.48;;;;;;;18.24;91.54;100404.28;5124737;28;20027;-65
2023/09/11 07:43:54;;;;;;;10.07;7.57;;;;;;;18.26;92.14;100397.19;5124709;28;20023;-65
2023/09/11 07:46:21;;;;;;;15.10;9.45;;;;;;;18.30;91.94;100406.66;5124791;28;20085;-65
2023/09/11 07:48:48;;;;;;;15.68;8.75;;;;;;;18.33;92.11;100393.41;5124432;28;20051;-65
2023/09/11 07:51:13;;;;;;;12.18;8.38;;;;;;;18.42;91.96;100407.91;5124806;28;20031;-65
2023/09/11 07:53:40;;;;;;;10.55;8.00;;;;;;;18.50;91.84;100415.47;5124430;28;20406;-65
2023/09/11 07:56:10;;;;;;;12.60;8.70;;;;;;;18.55;91.79;100416.16;5124716;28;20019;-65
2023/09/11 07:58:36;;;;;;;10.77;8.35;;;;;;;18.66;92.15;100422.72;5124697;28;20391;-65
2023/09/11 08:01:02;;;;;;;12.77;8.57;;;;;;;18.79;91.81;100420.41;5124453;28;20500;-65
2023/09/11 08:03:27;;;;;;;18.50;8.13;;;;;;;18.88;91.91;100417.38;5124246;28;20020;-65
2023/09/11 08:05:55;;;;;;;17.77;8.63;;;;;;;18.98;91.66;100415.22;5124476;28;20023;-65
2023/09/11 08:08:20;;;;;;;13.00;8.73;;;;;;;19.07;91.66;100411.34;5124494;28;20024;-65
2023/09/11 08:10:46;;;;;;;15.75;8.80;;;;;;;19.07;91.40;100419.25;5124446;28;20031;-64
2023/09/11 08:13:11;;;;;;;15.98;8.73;;;;;;;19.07;91.36;100406.91;5124163;28;20072;-66
2023/09/11 08:15:37;;;;;;;25.30;8.07;;;;;;;19.24;91.28;100415.03;5124560;28;20434;-64
2023/09/11 08:18:02;;;;;;;15.93;7.35;;;;;;;19.23;90.51;100410.69;5105707;28;20024;-65
2023/09/11 08:20:28;;;;;;;16.65;8.23;;;;;;;19.20;90.60;100415.16;5124623;28;20087;-65
2023/09/11 08:22:53;;;;;;;11.50;7.50;;;;;;;19.22;91.02;100417.72;5124442;28;20045;-65
2023/09/11 08:25:19;;;;;;;15.50;8.70;;;;;;;19.25;90.13;100414.13;5124298;28;20023;-65
2023/09/11 08:27:44;;;;;;;10.80;8.32;;;;;;;19.20;89.94;100416.94;5124535;28;20073;-65
2023/09/11 08:30:10;;;;;;;16.90;6.95;;;;;;;19.12;89.67;100408.53;5128244;28;20020;-65
2023/09/11 08:32:35;;;;;;;18.10;8.70;;;;;;;18.98;89.06;100394.19;5128082;28;20096;-66
2023/09/11 08:35:02;;;;;;;18.80;8.70;;;;;;;18.97;89.22;100391.63;5128069;28;20023;-65
2023/09/11 08:37:28;;;;;;;11.45;7.43;;;;;;;18.97;89.93;100396.88;5128229;28;20016;-64
2023/09/11 08:39:53;;;;;;;16.65;8.05;;;;;;;19.02;89.54;100393.13;5109692;28;20083;-64
2023/09/11 08:42:19;;;;;;;12.05;7.97;;;;;;;18.98;89.31;100391.53;5128134;28;20051;-65
2023/09/11 08:44:44;;;;;;;14.75;7.93;;;;;;;18.92;88.05;100384.78;5128034;28;20019;-65
2023/09/11 08:47:12;;;;;;;13.15;7.47;;;;;;;18.80;88.45;100385.34;5127490;28;20032;-65
2023/09/11 08:50:02;;;;;;;19.60;8.18;;;;;;;18.93;88.65;100410.16;5128125;28;20089;-65
2023/09/11 08:52:29;;;;;;;14.43;7.70;;;;;;;18.90;88.11;100406.81;5127887;28;20028;-65
2023/09/11 08:54:59;;;;;;;19.23;9.90;;;;;;;18.83;87.79;100403.59;5109089;28;20056;-65
2023/09/11 08:57:28;;;;;;;14.98;9.65;;;;;;;18.79;88.27;100394.97;5127676;28;20055;-65
2023/09/11 09:00:00;;;;;;;14.90;8.40;;;;;;;18.78;88.20;100411.69;5127296;28;20042;-65
2023/09/11 09:02:26;;;;;;;;;;;;;;;18.85;87.24;100416.69;5127678;28;20045;-65
2023/09/11 09:04:53;;;;;;;16.95;9.27;;;;;;;18.72;87.59;100425.09;5127556;28;19939;-65
2023/09/11 09:07:19;;;;;;;19.35;8.35;;;;;;;18.66;87.79;100423.56;5127373;28;20476;-65
2023/09/11 09:09:45;;;;;;;13.48;6.65;;;;;;;18.65;88.16;100421.00;5127400;28;20043;-64
2023/09/11 09:12:11;;;;;;;15.23;7.63;;;;;;;18.72;88.43;100430.38;5127499;28;20019;-65
2023/09/11 09:14:39;;;;;;;12.75;8.23;;;;;;;18.80;88.22;100432.66;5127341;28;20019;-65
2023/09/11 09:17:05;;;;;;;17.85;8.75;;;;;;;18.90;88.84;100438.38;5127237;28;20027;-65
2023/09/11 09:19:31;;;;;;;10.48;8.63;;;;;;;19.09;89.09;100441.09;5127277;28;20042;-65
2023/09/11 09:22:02;;;;;;;11.65;7.60;;;;;;;19.28;88.92;100437.66;5127425;28;20082;-65
2023/09/11 09:24:27;;;;;;;16.20;7.22;;;;;;;19.43;88.68;100438.72;5126910;28;20025;-65
2023/09/11 09:26:58;;;;;;;18.67;8.57;;;;;;;19.59;88.67;100432.75;5125881;28;20056;-66
2023/09/11 09:29:23;;;;;;;9.60;6.65;;;;;;;19.70;88.33;100438.38;5127102;28;20031;-65
2023/09/11 09:31:49;;;;;;;5.85;5.03;;;;;;;19.85;88.51;100431.56;5127194;28;20087;-66
2023/09/11 09:34:14;;;;;;;10.30;6.80;;;;;;;19.95;88.14;100434.63;5126729;28;20092;-65
2023/09/11 09:36:50;;;;;;;11.68;7.82;;;;;;;19.98;87.39;100431.84;5126913;28;20046;-65
2023/09/11 09:39:16;;;;;;;13.05;7.07;;;;;;;20.21;87.53;100443.06;5126842;28;20031;-65
2023/09/11 09:42:02;;;;;;;7.15;5.55;;;;;;;20.48;87.57;100426.81;5126774;28;20023;-65
2023/09/11 09:44:31;;;;;;;10.02;5.40;;;;;;;20.96;87.69;100438.56;5126717;28;20053;-65
2023/09/11 09:47:05;;;;;;;5.47;4.78;;;;;;;21.48;85.63;100431.44;5126912;28;20029;-65
2023/09/11 09:49:43;;;;;;;5.45;4.43;;;;;;;21.47;85.12;100413.91;5126724;28;20046;-65
2023/09/11 09:52:09;;;;;;;7.70;5.45;;;;;;;21.46;85.55;100420.97;5126659;28;20072;-65
2023/09/11 09:54:42;;;;;;;6.78;4.65;;;;;;;21.41;85.59;100413.31;5126317;28;20051;-66
2023/09/11 09:57:13;;;;;;;13.55;6.50;;;;;;;21.21;81.90;100426.72;5108327;28;20034;-65
2023/09/11 09:59:40;;;;;;;7.35;5.75;;;;;;;21.08;81.14;100422.09;5126490;28;20073;-64
2023/09/11 10:02:09;;;;;;;8.50;5.28;;;;;;;20.99;80.63;100415.50;5126328;28;20050;-63
2023/09/11 10:04:34;;;;;;;12.70;5.35;;;;;;;20.95;80.24;100399.91;5126246;28;20019;-65
2023/09/11 10:07:00;;;;;;;7.93;5.75;;;;;;;20.99;80.57;100404.09;5124932;28;20115;-65
2023/09/11 10:09:27;;;;;;;7.93;5.65;;;;;;;20.89;80.90;100416.88;5126495;28;20031;-64
2023/09/11 10:11:52;;;;;;;18.83;7.03;;;;;;;20.93;81.32;100413.19;5126383;28;20023;-64
2023/09/11 10:14:18;;;;;;;7.97;5.18;;;;;;;20.89;80.96;100391.38;5125828;28;20030;-65
2023/09/11 10:16:46;;;;;;;6.30;4.68;;;;;;;20.90;80.55;100385.16;5126273;28;20020;-64
2023/09/11 10:19:12;;;;;;;5.43;4.20;;;;;;;20.96;80.98;100381.34;5125990;28;20526;-65
2023/09/11 10:21:38;;;;;;;6.22;4.03;;;;;;;20.97;80.74;100387.50;5126471;28;20030;-65
2023/09/11 10:24:05;;;;;;;5.95;3.72;;;;;;;20.86;81.47;100374.84;5126043;28;20016;-65
2023/09/11 10:26:44;;;;;;;3.95;3.20;;;;;;;21.04;81.69;100365.97;5126047;28;20286;-65
2023/09/11 10:29:34;;;;;;;10.18;5.40;;;;;;;21.75;80.72;100368.31;5126056;28;20121;-65
2023/09/11 10:32:09;;;;;;;5.82;4.38;;;;;;;22.02;78.88;100362.44;5125681;28;20576;-65
2023/09/11 10:34:37;;;;;;;5.90;3.67;;;;;;;22.22;78.62;100367.50;5125694;28;20127;-64
2023/09/11 10:37:05;;;;;;;4.63;3.38;;;;;;;22.36;78.36;100362.25;5125606;28;20019;-64
2023/09/11 10:39:33;;;;;;;7.07;4.32;;;;;;;22.24;75.90;100355.88;5125671;28;20026;-64
2023/09/11 10:41:59;;;;;;;5.38;3.60;;;;;;;22.29;76.63;100367.06;5125602;28;20043;-64
2023/09/11 10:44:27;;;;;;;3.30;3.00;;;;;;;22.11;76.03;100363.69;5107223;28;20020;-65
2023/09/11 10:46:53;;;;;;;5.28;2.88;;;;;;;22.38;75.70;100378.03;5125636;28;20083;-65
2023/09/11 10:49:20;;;;;;;6.80;4.03;;;;;;;22.53;74.64;100371.84;5125208;28;20020;-65
2023/09/11 10:51:47;;;;;;;3.53;2.78;;;;;;;22.64;74.73;100350.06;5124999;28;20035;-65
2023/09/11 10:54:19;;;;;;;4.45;3.17;;;;;;;22.70;75.42;100353.28;5125226;28;20548;-65
2023/09/11 10:56:45;;;;;;;2.58;2.05;;;;;;;22.57;74.03;100355.78;5125449;28;20463;-65
2023/09/11 10:59:11;;;;;;;4.45;3.05;;;;;;;22.27;71.43;100366.28;5125602;28;20023;-65
2023/09/11 11:01:37;;;;;;;2.45;2.15;;;;;;;21.93;70.71;100355.03;5125326;28;20109;-65
2023/09/11 11:04:06;;;;;;;4.90;3.17;;;;;;;21.58;70.73;100350.75;5124928;28;20032;-65
2023/09/11 11:06:33;;;;;;;3.03;2.55;;;;;;;21.35;72.35;100365.25;5125385;28;20190;-64
2023/09/11 11:08:59;;;;;;;2.97;2.35;;;;;;;21.42;73.46;100371.91;5125116;28;20051;-64
2023/09/11 11:11:30;;;;;;;3.50;2.70;;;;;;;21.69;73.88;100370.44;5124848;28;20126;-65
2023/09/11 11:14:18;;;;;;;5.63;3.00;;;;;;;21.94;73.22;100375.22;5124983;28;20027;-64